createdAt,value
2023-05-21T00:02:25.814Z,5.43
2023-05-21T00:07:27.584Z,4.30
2023-05-21T00:12:29.279Z,4.07
2023-05-21T00:17:32.379Z,4.72
2023-05-21T00:22:34.168Z,4.72
2023-05-21T00:27:35.926Z,4.18
2023-05-21T00:32:38.983Z,3.92
2023-05-21T00:37:40.750Z,4.80
2023-05-21T00:42:42.472Z,4.55
2023-05-21T00:47:45.974Z,5.93
2023-05-21T00:52:47.913Z,5.40
2023-05-21T00:57:49.629Z,4.75
2023-05-21T01:02:52.795Z,5.22
2023-05-21T01:07:55.989Z,4.93
2023-05-21T01:12:59.573Z,5.03
2023-05-21T01:18:02.745Z,4.32
2023-05-21T01:23:06.276Z,3.85
2023-05-21T01:28:08.122Z,5.00
2023-05-21T01:33:17.137Z,4.85
2023-05-21T01:38:24.734Z,4.13
2023-05-21T01:43:29.304Z,4.30
2023-05-21T01:48:31.588Z,4.30
2023-05-21T01:53:35.106Z,4.43
2023-05-21T01:58:36.987Z,5.15
2023-05-21T02:03:38.907Z,4.22
2023-05-21T02:08:42.016Z,5.10
2023-05-21T02:13:43.721Z,4.70
2023-05-21T02:18:45.467Z,5.57
2023-05-21T02:23:48.852Z,4.70
2023-05-21T02:28:50.522Z,4.13
2023-05-21T02:33:52.185Z,4.25
2023-05-21T02:38:55.190Z,4.50
2023-05-21T02:43:56.867Z,4.97
2023-05-21T02:48:58.562Z,5.57
2023-05-21T02:54:01.639Z,5.32
2023-05-21T02:59:03.300Z,4.75
2023-05-21T03:04:04.932Z,4.63
2023-05-21T03:09:08.013Z,4.50
2023-05-21T03:14:09.724Z,5.35
2023-05-21T03:19:12.190Z,4.45
2023-05-21T03:24:15.361Z,4.93
2023-05-21T03:29:17.092Z,5.07
2023-05-21T03:34:18.750Z,5.25
2023-05-21T03:39:21.858Z,5.57
2023-05-21T03:44:23.550Z,5.18
2023-05-21T03:49:25.313Z,5.15
2023-05-21T03:54:28.337Z,6.07
2023-05-21T03:59:30.091Z,5.07
2023-05-21T04:04:31.791Z,5.45
2023-05-21T04:09:36.591Z,5.35
2023-05-21T04:14:39.106Z,5.10
2023-05-21T04:19:41.020Z,6.22
2023-05-21T04:24:44.138Z,5.20
2023-05-21T04:29:45.856Z,5.13
2023-05-21T04:34:47.587Z,4.45
2023-05-21T04:39:50.685Z,4.88
2023-05-21T04:44:52.467Z,4.97
2023-05-21T04:49:54.169Z,4.65
2023-05-21T04:54:57.282Z,5.15
2023-05-21T04:59:58.938Z,4.32
2023-05-21T05:05:00.602Z,4.55
2023-05-21T05:10:04.326Z,5.07
2023-05-21T05:15:07.042Z,4.97
2023-05-21T05:20:10.618Z,4.85
2023-05-21T05:25:13.714Z,4.45
2023-05-21T05:30:15.427Z,4.78
2023-05-21T05:35:17.101Z,4.65
2023-05-21T05:40:20.230Z,4.00
2023-05-21T05:45:21.908Z,4.30
2023-05-21T05:50:23.594Z,4.43
2023-05-21T05:55:26.859Z,4.15
2023-05-21T06:00:28.678Z,4.25
2023-05-21T06:05:30.448Z,3.25
2023-05-21T06:11:12.722Z,4.68
2023-05-21T06:22:01.028Z,4.28
2023-05-21T06:27:08.660Z,3.97
2023-05-21T06:32:20.781Z,4.47
2023-05-21T06:37:26.662Z,4.38
2023-05-21T06:43:05.806Z,3.78
2023-05-21T06:48:15.820Z,4.35
2023-05-21T06:53:26.394Z,4.10
2023-05-21T07:04:35.300Z,4.63
2023-05-21T07:09:43.195Z,4.80
2023-05-21T07:15:10.915Z,4.60
2023-05-21T07:20:19.873Z,5.03
2023-05-21T07:25:52.755Z,4.90
2023-05-21T07:58:50.425Z,3.88
2023-05-21T08:10:31.544Z,4.00
2023-05-21T08:15:40.432Z,3.80
2023-05-21T08:21:05.972Z,4.13
2023-05-21T08:27:05.959Z,3.45
2023-05-21T08:33:11.716Z,5.25
2023-05-21T08:38:24.976Z,4.38
2023-05-21T08:43:33.504Z,4.25
2023-05-21T08:48:42.883Z,3.40
2023-05-21T08:53:46.032Z,3.05
2023-05-21T08:59:25.053Z,3.10
2023-05-21T09:04:36.511Z,4.05
2023-05-21T09:15:29.996Z,3.92
2023-05-21T09:38:51.113Z,3.25
2023-05-21T09:43:53.569Z,3.38
2023-05-21T09:55:06.816Z,4.97
2023-05-21T10:00:19.050Z,3.75
2023-05-21T10:05:21.085Z,3.85
2023-05-21T10:16:37.082Z,3.95
2023-05-21T10:21:52.880Z,4.20
2023-05-21T10:26:58.041Z,4.13
2023-05-21T10:32:43.304Z,4.15
2023-05-21T10:56:01.125Z,3.28
2023-05-21T11:13:17.174Z,3.70
2023-05-21T11:19:03.110Z,4.30
2023-05-21T11:24:08.096Z,4.25
2023-05-21T11:30:14.123Z,4.00
2023-05-21T11:35:24.104Z,4.20
2023-05-21T11:40:35.468Z,4.32
2023-05-21T11:46:09.935Z,4.20
2023-05-21T11:51:22.481Z,3.72
2023-05-21T11:56:37.227Z,4.13
2023-05-21T12:02:15.585Z,3.87
2023-05-21T12:14:27.470Z,3.55
2023-05-21T12:19:45.155Z,2.92
2023-05-21T12:25:24.004Z,4.22
2023-05-21T12:30:26.036Z,3.38
2023-05-21T12:35:34.976Z,3.25
2023-05-21T12:40:40.334Z,4.10
2023-05-21T12:45:48.434Z,3.55
2023-05-21T12:50:55.543Z,3.47
2023-05-21T13:02:14.477Z,3.13
2023-05-21T13:07:56.082Z,3.78
2023-05-21T13:18:38.217Z,2.95
2023-05-21T13:23:47.357Z,3.00
2023-05-21T13:28:51.996Z,3.83
2023-05-21T13:34:01.733Z,3.33
2023-05-21T13:50:36.597Z,3.47
2023-05-21T13:55:41.186Z,4.38
2023-05-21T14:07:26.413Z,3.13
2023-05-21T14:18:42.653Z,3.95
2023-05-21T14:23:45.850Z,3.55
2023-05-21T14:28:50.578Z,4.45
2023-05-21T14:33:52.391Z,3.88
2023-05-21T14:39:10.541Z,3.25
2023-05-21T14:44:39.506Z,3.95
2023-05-21T14:49:47.858Z,4.00
2023-05-21T14:55:29.320Z,4.35
2023-05-21T15:00:47.810Z,4.45
2023-05-21T15:05:56.083Z,3.92
2023-05-21T15:11:03.880Z,4.63
2023-05-21T15:16:37.773Z,4.43
2023-05-21T15:22:20.288Z,3.55
2023-05-21T15:27:27.808Z,4.80
2023-05-21T15:32:46.002Z,4.30
2023-05-21T15:44:23.698Z,4.30
2023-05-21T15:54:39.510Z,3.07
2023-05-21T16:01:03.160Z,4.38
2023-05-21T16:06:06.310Z,3.70
2023-05-21T16:11:07.992Z,4.40
2023-05-21T16:16:28.288Z,4.10
2023-05-21T16:22:14.316Z,3.63
2023-05-21T16:27:54.426Z,4.13
2023-05-21T16:33:02.203Z,4.22
2023-05-21T16:38:31.982Z,4.20
2023-05-21T16:49:46.272Z,3.70
2023-05-21T16:55:02.984Z,3.58
2023-05-21T17:00:22.466Z,4.03
2023-05-21T17:05:51.317Z,3.97
2023-05-21T17:11:13.318Z,4.28
2023-05-21T17:16:16.429Z,3.88
2023-05-21T17:27:30.677Z,4.05
2023-05-21T17:32:34.457Z,3.58
2023-05-21T17:37:42.257Z,4.28
2023-05-21T17:43:50.170Z,4.57
2023-05-21T17:49:18.268Z,4.90
2023-05-21T17:54:20.205Z,5.57
2023-05-21T18:04:50.307Z,5.05
2023-05-21T18:09:55.018Z,3.90
2023-05-21T18:15:27.272Z,4.65
2023-05-21T18:20:54.860Z,5.00
2023-05-21T18:32:36.342Z,5.03
2023-05-21T18:38:06.054Z,4.75
2023-05-21T18:43:53.274Z,5.38
2023-05-21T18:48:55.037Z,5.35
2023-05-21T18:53:58.183Z,3.67
2023-05-21T18:59:00.165Z,5.30
2023-05-21T19:04:01.978Z,5.50
2023-05-21T19:09:05.088Z,4.88
2023-05-21T19:14:06.747Z,5.38
2023-05-21T19:19:08.521Z,4.53
2023-05-21T19:24:11.735Z,4.72
2023-05-21T19:29:13.521Z,4.97
2023-05-21T19:34:15.465Z,4.40
2023-05-21T19:39:18.584Z,4.55
2023-05-21T19:44:20.303Z,4.72
2023-05-21T19:49:22.130Z,5.40
2023-05-21T19:54:25.618Z,4.63
2023-05-21T19:59:27.392Z,5.10
2023-05-21T20:04:29.106Z,4.82
2023-05-21T20:09:32.867Z,5.00
2023-05-21T20:14:34.580Z,5.10
2023-05-21T20:19:36.321Z,5.80
2023-05-21T20:24:39.417Z,5.53
2023-05-21T20:29:41.100Z,4.88
2023-05-21T20:34:58.327Z,5.43
2023-05-21T20:40:06.049Z,4.85
2023-05-21T20:45:08.765Z,5.03
2023-05-21T20:50:11.534Z,5.22
2023-05-21T20:55:14.931Z,5.90
2023-05-21T21:00:17.050Z,6.07
2023-05-21T21:05:18.705Z,4.80
2023-05-21T21:10:21.848Z,5.90
2023-05-21T21:15:23.685Z,5.18
2023-05-21T21:20:25.331Z,5.55
2023-05-21T21:25:28.915Z,5.63
2023-05-21T21:30:30.658Z,5.07
2023-05-21T21:35:32.390Z,5.30
2023-05-21T21:40:35.530Z,5.70
2023-05-21T21:45:37.262Z,5.40
2023-05-21T21:50:39.083Z,5.07
2023-05-21T21:55:42.387Z,4.93
2023-05-21T22:00:44.175Z,6.18
2023-05-21T22:05:45.938Z,5.15
2023-05-21T22:10:48.975Z,5.32
2023-05-21T22:15:50.636Z,4.90
2023-05-21T22:20:52.315Z,5.43
2023-05-21T22:25:55.451Z,5.95
2023-05-21T22:30:57.236Z,5.63
2023-05-21T22:35:58.965Z,5.38
2023-05-21T22:41:02.194Z,6.65
2023-05-21T22:46:04.049Z,5.68
2023-05-21T22:51:05.791Z,4.20
2023-05-21T22:56:08.870Z,6.82
2023-05-21T23:01:10.708Z,5.03
2023-05-21T23:06:12.403Z,5.45
2023-05-21T23:11:15.496Z,5.05
2023-05-21T23:16:17.285Z,5.30
2023-05-21T23:21:19.039Z,5.00
2023-05-21T23:26:22.123Z,5.60
2023-05-21T23:31:23.936Z,5.05
2023-05-21T23:36:26.331Z,6.28
2023-05-21T23:41:29.456Z,5.22
2023-05-21T23:46:31.249Z,4.53
2023-05-21T23:51:32.968Z,5.25
2023-05-21T23:56:36.084Z,5.93
